createdAt,value
2019-05-19T00:02:19.135Z,73.40
2019-05-19T00:04:47.820Z,73.10
2019-05-19T00:07:16.571Z,72.90
2019-05-19T00:09:45.943Z,73.10
2019-05-19T00:12:14.687Z,73.50
2019-05-19T00:14:43.603Z,73.40
2019-05-19T00:17:12.080Z,73.30
2019-05-19T00:19:40.527Z,73.30
2019-05-19T00:22:08.983Z,73.30
2019-05-19T00:24:37.430Z,73.60
2019-05-19T00:27:05.891Z,73.60
2019-05-19T00:29:34.324Z,73.70
2019-05-19T00:32:02.788Z,73.90
2019-05-19T00:34:31.244Z,74.20
2019-05-19T00:36:59.769Z,74.40
2019-05-19T00:39:28.251Z,74.70
2019-05-19T00:41:57.102Z,75.00
2019-05-19T00:44:25.570Z,75.00
2019-05-19T00:46:54.145Z,74.90
2019-05-19T00:49:22.906Z,74.90
2019-05-19T00:51:51.349Z,74.50
2019-05-19T00:54:20.114Z,74.70
2019-05-19T00:56:50.134Z,74.70
2019-05-19T00:59:19.678Z,74.40
2019-05-19T01:01:48.118Z,74.20
2019-05-19T01:04:16.825Z,74.60
2019-05-19T01:06:45.289Z,74.40
2019-05-19T01:09:14.078Z,74.50
2019-05-19T01:11:42.794Z,74.40
2019-05-19T01:14:11.299Z,74.30
2019-05-19T01:16:39.740Z,74.30
2019-05-19T01:19:08.436Z,74.40
2019-05-19T01:21:39.141Z,74.20
2019-05-19T01:24:07.579Z,74.10
2019-05-19T01:26:36.028Z,74.40
2019-05-19T01:29:04.472Z,74.40
2019-05-19T01:31:33.362Z,74.70
2019-05-19T01:34:02.189Z,74.80
2019-05-19T01:36:30.652Z,74.90
2019-05-19T01:38:59.081Z,75.00
2019-05-19T01:41:27.912Z,74.90
2019-05-19T01:43:56.670Z,75.00
2019-05-19T01:46:25.693Z,75.20
2019-05-19T01:48:54.598Z,75.40
2019-05-19T01:51:23.109Z,75.20
2019-05-19T01:53:51.561Z,75.20
2019-05-19T01:56:20.263Z,75.10
2019-05-19T01:58:49.017Z,74.90
2019-05-19T02:01:17.445Z,74.80
2019-05-19T02:03:45.906Z,74.90
2019-05-19T02:06:14.374Z,74.90
2019-05-19T02:08:42.830Z,74.90
2019-05-19T02:11:11.512Z,74.90
2019-05-19T02:13:39.953Z,75.10
2019-05-19T02:16:08.430Z,75.50
2019-05-19T02:18:37.141Z,75.60
2019-05-19T02:21:06.357Z,75.60
2019-05-19T02:23:34.816Z,75.40
2019-05-19T02:26:03.253Z,75.40
2019-05-19T02:28:31.700Z,75.20
2019-05-19T02:31:00.147Z,75.20
2019-05-19T02:33:28.864Z,74.90
2019-05-19T02:35:57.566Z,74.80
2019-05-19T02:38:26.039Z,75.20
2019-05-19T02:40:56.478Z,75.10
2019-05-19T02:43:25.970Z,75.20
2019-05-19T02:45:57.481Z,75.20
2019-05-19T02:48:28.090Z,75.20
2019-05-19T02:50:59.098Z,75.00
2019-05-19T02:53:27.918Z,75.00
2019-05-19T02:55:57.409Z,74.80
2019-05-19T02:58:26.193Z,74.90
2019-05-19T03:00:54.762Z,75.10
2019-05-19T03:03:23.201Z,74.90
2019-05-19T03:05:51.654Z,75.00
2019-05-19T03:08:20.106Z,75.10
2019-05-19T03:10:48.558Z,75.00
2019-05-19T03:13:17.002Z,74.90
2019-05-19T03:15:45.771Z,74.90
2019-05-19T03:18:14.221Z,75.00
2019-05-19T03:20:42.687Z,74.90
2019-05-19T03:23:11.131Z,74.80
2019-05-19T03:25:39.562Z,75.00
2019-05-19T03:28:08.042Z,75.10
2019-05-19T03:30:41.291Z,75.20
2019-05-19T03:33:11.561Z,75.30
2019-05-19T03:35:40.059Z,75.30
2019-05-19T03:38:08.765Z,75.00
2019-05-19T03:40:37.473Z,75.20
2019-05-19T03:43:06.099Z,75.00
2019-05-19T03:45:34.514Z,74.90
2019-05-19T03:48:14.729Z,74.20
2019-05-19T03:50:43.491Z,74.30
2019-05-19T03:53:12.007Z,74.30
2019-05-19T03:55:40.474Z,74.20
2019-05-19T03:58:08.922Z,74.30
2019-05-19T04:00:37.672Z,74.20
2019-05-19T04:03:06.373Z,74.20
2019-05-19T04:05:36.210Z,74.00
2019-05-19T04:08:04.962Z,74.00
2019-05-19T04:10:33.472Z,73.90
2019-05-19T04:13:02.003Z,73.60
2019-05-19T04:15:30.559Z,73.50
2019-05-19T04:17:59.021Z,73.20
2019-05-19T04:20:27.550Z,72.60
2019-05-19T04:22:56.308Z,72.60
2019-05-19T04:25:24.774Z,72.20
2019-05-19T04:27:53.547Z,71.90
2019-05-19T04:30:22.181Z,71.40
2019-05-19T04:32:50.707Z,71.20
2019-05-19T04:35:19.260Z,70.70
2019-05-19T04:37:47.714Z,70.20
2019-05-19T04:40:16.308Z,70.00
2019-05-19T04:42:45.041Z,69.60
2019-05-19T04:45:13.642Z,69.10
2019-05-19T04:47:42.080Z,69.30
2019-05-19T04:50:11.625Z,68.90
2019-05-19T04:52:40.067Z,68.70
2019-05-19T04:55:08.899Z,68.20
2019-05-19T04:57:37.605Z,67.40
2019-05-19T05:00:09.064Z,66.90
2019-05-19T05:02:37.522Z,66.80
2019-05-19T05:05:06.502Z,66.40
2019-05-19T05:07:34.995Z,66.00
2019-05-19T05:10:03.655Z,65.90
2019-05-19T05:12:32.451Z,65.80
2019-05-19T05:15:00.903Z,65.50
2019-05-19T05:17:29.620Z,65.40
2019-05-19T05:19:58.318Z,65.60
2019-05-19T05:22:26.795Z,65.30
2019-05-19T05:24:55.723Z,65.10
2019-05-19T05:27:24.232Z,65.20
2019-05-19T05:29:52.697Z,65.30
2019-05-19T05:32:21.154Z,64.80
2019-05-19T05:34:49.864Z,64.90
2019-05-19T05:37:18.331Z,64.90
2019-05-19T05:39:46.860Z,64.70
2019-05-19T05:42:15.324Z,64.70
2019-05-19T05:44:43.855Z,64.50
2019-05-19T05:47:12.679Z,64.30
2019-05-19T05:49:41.118Z,64.40
2019-05-19T05:52:09.889Z,64.40
2019-05-19T05:54:38.340Z,64.20
2019-05-19T05:57:06.810Z,63.80
2019-05-19T05:59:35.346Z,64.10
2019-05-19T06:02:03.802Z,64.10
2019-05-19T06:04:32.548Z,64.10
2019-05-19T06:07:00.994Z,64.20
2019-05-19T06:09:29.896Z,64.30
2019-05-19T06:11:58.348Z,64.20
2019-05-19T06:14:27.134Z,64.30
2019-05-19T06:16:55.967Z,64.00
2019-05-19T06:19:24.833Z,64.20
2019-05-19T06:21:53.574Z,64.00
2019-05-19T06:24:22.305Z,63.70
2019-05-19T06:26:51.056Z,63.80
2019-05-19T06:29:19.771Z,63.80
2019-05-19T06:31:48.687Z,63.40
2019-05-19T06:34:17.211Z,63.30
2019-05-19T06:36:45.984Z,63.40
2019-05-19T06:39:14.437Z,63.20
2019-05-19T06:41:42.983Z,63.00
2019-05-19T06:44:11.691Z,62.60
2019-05-19T06:46:40.147Z,61.70
2019-05-19T06:49:08.620Z,61.60
2019-05-19T06:51:37.072Z,61.60
2019-05-19T06:54:05.523Z,61.80
2019-05-19T06:56:33.983Z,61.80
2019-05-19T06:59:05.315Z,61.70
2019-05-19T07:01:34.231Z,61.70
2019-05-19T07:04:04.318Z,61.40
2019-05-19T07:06:34.304Z,61.10
2019-05-19T07:09:05.374Z,60.90
2019-05-19T07:11:33.877Z,60.70
2019-05-19T07:14:04.309Z,60.30
2019-05-19T07:16:33.416Z,60.40
2019-05-19T07:19:01.903Z,60.10
2019-05-19T07:21:30.359Z,60.00
2019-05-19T07:23:58.824Z,60.20
2019-05-19T07:26:27.831Z,60.40
2019-05-19T07:28:58.851Z,60.10
2019-05-19T07:31:26.456Z,58.20
2019-05-19T07:33:54.935Z,58.90
2019-05-19T07:36:23.829Z,58.80
2019-05-19T07:38:52.303Z,59.00
2019-05-19T07:41:21.012Z,59.00
2019-05-19T07:43:49.574Z,57.80
2019-05-19T07:46:18.351Z,58.70
2019-05-19T07:48:47.087Z,58.50
2019-05-19T07:51:15.527Z,57.90
2019-05-19T07:53:44.131Z,56.40
2019-05-19T07:56:12.598Z,56.40
2019-05-19T07:58:41.064Z,56.80
2019-05-19T08:01:09.501Z,56.20
2019-05-19T08:03:37.967Z,55.30
2019-05-19T08:06:06.594Z,56.10
2019-05-19T08:08:35.170Z,54.80
2019-05-19T08:11:03.740Z,53.30
2019-05-19T08:13:32.513Z,53.40
2019-05-19T08:16:01.652Z,54.40
2019-05-19T08:18:30.481Z,54.10
2019-05-19T08:20:59.015Z,53.10
2019-05-19T08:23:27.724Z,52.60
2019-05-19T08:25:56.551Z,53.00
2019-05-19T08:28:25.051Z,51.90
2019-05-19T08:30:55.259Z,53.30
2019-05-19T08:33:23.819Z,52.00
2019-05-19T08:35:52.388Z,52.30
2019-05-19T08:38:20.831Z,50.40
2019-05-19T08:40:49.597Z,50.70
2019-05-19T08:43:18.339Z,49.90
2019-05-19T08:45:47.157Z,50.30
2019-05-19T08:48:15.597Z,49.90
2019-05-19T08:50:44.042Z,51.10
2019-05-19T08:53:12.492Z,50.70
2019-05-19T08:55:40.959Z,48.70
2019-05-19T08:58:09.719Z,48.60
2019-05-19T09:00:38.617Z,49.80
2019-05-19T09:03:07.432Z,48.00
2019-05-19T09:05:36.144Z,49.40
2019-05-19T09:08:04.628Z,48.70
2019-05-19T09:10:33.078Z,47.20
2019-05-19T09:13:01.903Z,47.50
2019-05-19T09:15:30.419Z,47.30
2019-05-19T09:17:59.415Z,46.10
2019-05-19T09:20:27.891Z,46.50
2019-05-19T09:22:56.400Z,47.30
2019-05-19T09:25:24.856Z,46.00
2019-05-19T09:27:53.312Z,46.10
2019-05-19T09:30:21.827Z,46.70
2019-05-19T09:32:50.310Z,45.60
2019-05-19T09:35:18.814Z,46.00
2019-05-19T09:37:47.279Z,45.30
2019-05-19T09:40:15.887Z,44.70
2019-05-19T09:42:44.418Z,44.20
2019-05-19T09:45:13.953Z,43.60
2019-05-19T09:47:42.825Z,44.80
2019-05-19T09:50:12.131Z,42.90
2019-05-19T09:52:40.603Z,44.30
2019-05-19T09:55:09.596Z,43.40
2019-05-19T09:57:38.149Z,42.20
2019-05-19T10:00:07.232Z,43.80
2019-05-19T10:02:36.120Z,43.10
2019-05-19T10:05:06.723Z,43.50
2019-05-19T10:07:35.235Z,42.70
2019-05-19T10:10:09.938Z,43.40
2019-05-19T10:12:38.437Z,43.90
2019-05-19T10:15:07.835Z,44.10
2019-05-19T10:17:36.346Z,42.80
2019-05-19T10:20:07.760Z,41.40
2019-05-19T10:22:36.323Z,41.70
2019-05-19T10:25:21.090Z,41.70
2019-05-19T10:27:38.141Z,42.50
2019-05-19T10:30:08.400Z,40.70
2019-05-19T10:32:37.347Z,39.40
2019-05-19T10:35:06.105Z,40.50
2019-05-19T10:37:36.525Z,38.00
2019-05-19T10:40:12.153Z,38.50
2019-05-19T10:42:43.863Z,38.60
2019-05-19T10:45:12.582Z,38.80
2019-05-19T10:47:41.617Z,39.60
2019-05-19T10:50:14.487Z,40.20
2019-05-19T10:52:42.921Z,41.30
2019-05-19T10:55:12.301Z,40.50
2019-05-19T10:57:41.127Z,38.90
2019-05-19T11:00:10.411Z,38.70
2019-05-19T11:02:38.992Z,39.20
2019-05-19T11:05:11.060Z,39.30
2019-05-19T11:07:41.052Z,40.60
2019-05-19T11:10:09.734Z,41.60
2019-05-19T11:12:38.546Z,41.30
2019-05-19T11:15:07.920Z,41.80
2019-05-19T11:17:36.623Z,41.40
2019-05-19T11:20:06.358Z,41.10
2019-05-19T11:22:35.342Z,41.70
2019-05-19T11:25:04.843Z,42.10
2019-05-19T11:27:33.382Z,40.40
2019-05-19T11:30:02.155Z,39.40
2019-05-19T11:32:33.776Z,40.60
2019-05-19T11:35:02.460Z,41.20
2019-05-19T11:37:31.147Z,41.60
2019-05-19T11:39:59.844Z,41.20
2019-05-19T11:42:28.577Z,42.30
2019-05-19T11:45:00.312Z,41.60
2019-05-19T11:47:28.837Z,40.80
2019-05-19T11:49:57.303Z,41.20
2019-05-19T11:52:26.003Z,40.80
2019-05-19T11:54:54.446Z,40.10
2019-05-19T11:57:23.191Z,40.30
2019-05-19T11:59:51.634Z,40.10
2019-05-19T12:02:20.340Z,39.90
2019-05-19T12:04:49.039Z,40.40
2019-05-19T12:07:17.499Z,41.10
2019-05-19T12:09:45.966Z,39.00
2019-05-19T12:12:14.413Z,38.70
2019-05-19T12:14:43.127Z,38.30
2019-05-19T12:17:11.620Z,38.10
2019-05-19T12:19:40.480Z,39.50
2019-05-19T12:22:08.942Z,38.80
2019-05-19T12:24:37.644Z,37.80
2019-05-19T12:27:06.102Z,37.90
2019-05-19T12:29:34.883Z,37.10
2019-05-19T12:32:03.793Z,38.60
2019-05-19T12:34:32.669Z,38.20
2019-05-19T12:37:01.127Z,36.60
2019-05-19T12:39:29.820Z,38.90
2019-05-19T12:41:58.622Z,37.00
2019-05-19T12:44:27.083Z,36.90
2019-05-19T12:46:55.845Z,36.40
2019-05-19T12:49:24.301Z,37.30
2019-05-19T12:51:52.742Z,37.80
2019-05-19T12:54:21.463Z,36.50
2019-05-19T12:56:50.177Z,36.50
2019-05-19T12:59:18.632Z,36.30
2019-05-19T13:01:47.147Z,36.40
2019-05-19T13:04:15.619Z,37.30
2019-05-19T13:06:44.074Z,37.30
2019-05-19T13:09:12.649Z,38.10
2019-05-19T13:11:41.090Z,37.90
2019-05-19T13:14:09.544Z,37.20
2019-05-19T13:16:38.055Z,36.40
2019-05-19T13:19:06.760Z,36.80
2019-05-19T13:21:35.227Z,37.30
2019-05-19T13:24:03.662Z,36.70
2019-05-19T13:26:32.123Z,36.90
2019-05-19T13:29:00.563Z,36.60
2019-05-19T13:31:29.478Z,37.10
2019-05-19T13:33:57.907Z,37.00
2019-05-19T13:36:26.641Z,38.20
2019-05-19T13:38:55.094Z,39.60
2019-05-19T13:41:23.550Z,39.20
2019-05-19T13:43:52.295Z,38.70
2019-05-19T13:46:20.734Z,36.30
2019-05-19T13:48:49.443Z,37.30
2019-05-19T13:51:18.245Z,35.40
2019-05-19T13:53:47.034Z,36.20
2019-05-19T13:56:15.818Z,36.40
2019-05-19T13:58:44.612Z,37.90
2019-05-19T14:01:27.644Z,35.90
2019-05-19T14:03:43.220Z,36.10
2019-05-19T14:06:11.999Z,35.70
2019-05-19T14:08:40.439Z,36.20
2019-05-19T14:11:08.881Z,36.80
2019-05-19T14:13:37.648Z,35.70
2019-05-19T14:16:06.431Z,36.70
2019-05-19T14:18:34.880Z,36.30
2019-05-19T14:21:03.704Z,36.10
2019-05-19T14:23:32.134Z,35.40
2019-05-19T14:26:00.876Z,36.30
2019-05-19T14:28:29.311Z,36.10
2019-05-19T14:30:57.755Z,36.70
2019-05-19T14:33:26.200Z,36.50
2019-05-19T14:35:55.212Z,36.80
2019-05-19T14:38:23.677Z,37.00
2019-05-19T14:40:52.363Z,37.40
2019-05-19T14:43:22.462Z,36.70
2019-05-19T14:45:50.901Z,35.80
2019-05-19T14:48:20.376Z,36.30
2019-05-19T14:50:48.807Z,34.90
2019-05-19T14:53:17.543Z,33.70
2019-05-19T14:55:45.978Z,34.00
2019-05-19T14:58:14.581Z,33.10
2019-05-19T15:00:43.010Z,33.10
2019-05-19T15:03:11.466Z,33.00
2019-05-19T15:05:39.919Z,33.90
2019-05-19T15:08:08.638Z,33.80
2019-05-19T15:10:37.079Z,33.80
2019-05-19T15:13:05.535Z,33.30
2019-05-19T15:15:33.982Z,32.40
2019-05-19T15:18:02.446Z,32.00
2019-05-19T15:20:30.969Z,32.90
2019-05-19T15:22:59.734Z,33.00
2019-05-19T15:25:31.700Z,31.20
2019-05-19T15:28:04.842Z,32.20
2019-05-19T15:30:30.328Z,33.30
2019-05-19T15:32:59.355Z,33.20
2019-05-19T15:35:30.239Z,32.90
2019-05-19T15:37:58.911Z,33.40
2019-05-19T15:40:27.703Z,34.20
2019-05-19T15:42:57.119Z,34.20
2019-05-19T15:45:25.572Z,33.80
2019-05-19T15:47:54.004Z,33.90
2019-05-19T15:50:22.760Z,34.00
2019-05-19T15:52:51.186Z,33.40
2019-05-19T15:55:19.642Z,33.50
2019-05-19T15:57:48.417Z,33.50
2019-05-19T16:00:17.055Z,33.00
2019-05-19T16:02:45.513Z,33.40
2019-05-19T16:05:14.708Z,33.30
2019-05-19T16:07:43.304Z,32.70
2019-05-19T16:10:12.291Z,32.90
2019-05-19T16:12:41.080Z,33.40
2019-05-19T16:15:10.154Z,32.30
2019-05-19T16:17:38.617Z,33.50
2019-05-19T16:20:07.692Z,32.50
2019-05-19T16:22:36.146Z,32.90
2019-05-19T16:25:06.731Z,32.50
2019-05-19T16:27:35.244Z,32.70
2019-05-19T16:30:07.814Z,32.30
2019-05-19T16:32:36.279Z,33.20
2019-05-19T16:35:07.045Z,32.90
2019-05-19T16:37:35.600Z,33.50
2019-05-19T16:40:05.663Z,33.10
2019-05-19T16:42:34.387Z,34.10
2019-05-19T16:45:03.301Z,32.50
2019-05-19T16:47:31.875Z,32.70
2019-05-19T16:50:00.376Z,31.90
2019-05-19T16:52:29.233Z,32.50
2019-05-19T16:55:15.767Z,33.50
2019-05-19T16:57:44.283Z,33.20
2019-05-19T17:00:13.271Z,34.20
2019-05-19T17:02:41.706Z,32.90
2019-05-19T17:05:10.488Z,34.10
2019-05-19T17:07:39.033Z,33.40
2019-05-19T17:10:10.987Z,34.60
2019-05-19T17:12:39.451Z,34.20
2019-05-19T17:15:07.951Z,34.20
2019-05-19T17:17:36.687Z,35.10
2019-05-19T17:20:09.791Z,34.70
2019-05-19T17:22:38.237Z,34.00
2019-05-19T17:25:07.639Z,34.90
2019-05-19T17:27:36.355Z,34.60
2019-05-19T17:30:10.500Z,35.00
2019-05-19T17:32:38.951Z,34.40
2019-05-19T17:35:07.834Z,35.00
2019-05-19T17:37:36.272Z,35.30
2019-05-19T17:40:06.221Z,35.20
2019-05-19T17:42:37.174Z,35.80
2019-05-19T17:45:06.914Z,36.10
2019-05-19T17:47:35.968Z,36.60
2019-05-19T17:50:05.507Z,37.10
2019-05-19T17:52:34.367Z,36.60
2019-05-19T17:55:02.895Z,36.80
2019-05-19T17:57:32.360Z,36.60
2019-05-19T18:00:02.198Z,36.50
2019-05-19T18:02:30.642Z,38.50
2019-05-19T18:04:59.535Z,38.90
2019-05-19T18:07:28.316Z,38.80
2019-05-19T18:09:56.774Z,38.70
2019-05-19T18:12:25.479Z,40.30
2019-05-19T18:14:53.913Z,40.30
2019-05-19T18:17:22.654Z,41.10
2019-05-19T18:19:52.051Z,40.90
2019-05-19T18:22:20.575Z,41.50
2019-05-19T18:24:49.013Z,40.70
2019-05-19T18:27:17.806Z,41.50
2019-05-19T18:29:46.246Z,42.00
2019-05-19T18:32:14.709Z,41.70
2019-05-19T18:34:43.493Z,41.60
2019-05-19T18:37:13.522Z,42.10
2019-05-19T18:39:42.467Z,42.30
2019-05-19T18:42:10.906Z,41.90
2019-05-19T18:44:39.348Z,42.90
2019-05-19T18:47:07.870Z,44.40
2019-05-19T18:49:36.452Z,45.80
2019-05-19T18:52:05.332Z,45.60
2019-05-19T18:54:33.795Z,45.90
2019-05-19T18:57:02.601Z,45.60
2019-05-19T18:59:46.083Z,46.40
2019-05-19T19:02:02.235Z,45.10
2019-05-19T19:04:30.704Z,46.10
2019-05-19T19:06:59.414Z,46.60
2019-05-19T19:09:28.128Z,47.50
2019-05-19T19:11:56.570Z,46.40
2019-05-19T19:14:27.651Z,46.60
2019-05-19T19:16:55.198Z,46.80
2019-05-19T19:19:23.983Z,47.50
2019-05-19T19:21:52.438Z,48.60
2019-05-19T19:24:21.183Z,49.40
2019-05-19T19:26:49.879Z,50.20
2019-05-19T19:29:18.320Z,51.00
2019-05-19T19:31:48.833Z,51.50
2019-05-19T19:34:16.955Z,51.20
2019-05-19T19:36:45.639Z,51.10
2019-05-19T19:39:14.367Z,51.20
2019-05-19T19:41:42.811Z,51.50
2019-05-19T19:44:11.399Z,52.40
2019-05-19T19:46:39.913Z,52.30
2019-05-19T19:49:08.375Z,52.30
2019-05-19T19:51:36.872Z,53.10
2019-05-19T19:54:05.332Z,52.80
2019-05-19T19:56:34.037Z,52.30
2019-05-19T19:59:02.571Z,51.70
2019-05-19T20:01:31.085Z,51.80
2019-05-19T20:03:59.542Z,52.10
2019-05-19T20:06:27.995Z,52.30
2019-05-19T20:08:56.699Z,52.00
2019-05-19T20:11:25.488Z,52.20
2019-05-19T20:13:54.015Z,52.80
2019-05-19T20:16:22.764Z,52.70
2019-05-19T20:18:51.460Z,53.00
2019-05-19T20:21:19.898Z,53.80
2019-05-19T20:23:48.616Z,53.20
2019-05-19T20:26:17.071Z,53.20
2019-05-19T20:28:45.884Z,53.20
2019-05-19T20:31:14.672Z,53.80
2019-05-19T20:33:43.342Z,54.50
2019-05-19T20:36:12.327Z,54.90
2019-05-19T20:38:41.091Z,55.30
2019-05-19T20:41:09.769Z,55.70
2019-05-19T20:43:38.367Z,55.60
2019-05-19T20:46:07.181Z,56.00
2019-05-19T20:48:36.206Z,56.70
2019-05-19T20:51:05.055Z,56.90
2019-05-19T20:53:33.838Z,56.60
2019-05-19T20:56:02.641Z,56.80
2019-05-19T20:58:31.162Z,57.10
2019-05-19T21:00:59.762Z,56.90
2019-05-19T21:03:28.202Z,57.20
2019-05-19T21:05:56.906Z,57.30
2019-05-19T21:08:25.602Z,57.50
2019-05-19T21:10:54.311Z,57.30
2019-05-19T21:13:22.750Z,57.60
2019-05-19T21:15:51.204Z,57.60
2019-05-19T21:18:19.638Z,58.00
2019-05-19T21:20:49.078Z,58.30
2019-05-19T21:23:17.667Z,58.40
2019-05-19T21:25:46.127Z,59.20
2019-05-19T21:28:14.886Z,59.90
2019-05-19T21:30:43.334Z,60.00
2019-05-19T21:33:11.792Z,60.10
2019-05-19T21:35:40.335Z,60.30
2019-05-19T21:38:08.756Z,60.40
2019-05-19T21:40:37.470Z,60.40
2019-05-19T21:43:05.921Z,60.60
2019-05-19T21:45:34.743Z,60.70
2019-05-19T21:48:03.187Z,60.70
2019-05-19T21:50:31.690Z,60.90
2019-05-19T21:53:00.150Z,61.00
2019-05-19T21:55:28.613Z,61.20
2019-05-19T21:57:57.123Z,61.30
2019-05-19T22:00:27.289Z,61.50
2019-05-19T22:02:57.278Z,61.70
2019-05-19T22:05:25.810Z,61.60
2019-05-19T22:07:58.982Z,61.60
2019-05-19T22:10:38.549Z,61.60
2019-05-19T22:13:04.196Z,61.80
2019-05-19T22:15:34.470Z,61.90
2019-05-19T22:18:03.252Z,62.00
2019-05-19T22:20:31.756Z,61.90
2019-05-19T22:23:00.621Z,62.00
2019-05-19T22:25:29.115Z,61.90
2019-05-19T22:27:57.867Z,62.10
2019-05-19T22:30:26.761Z,62.20
2019-05-19T22:32:55.490Z,62.10
2019-05-19T22:35:24.258Z,62.10
2019-05-19T22:37:52.771Z,62.10
2019-05-19T22:40:21.602Z,62.10
2019-05-19T22:42:50.047Z,62.20
2019-05-19T22:45:18.569Z,62.30
2019-05-19T22:47:47.021Z,62.40
2019-05-19T22:50:15.599Z,62.40
2019-05-19T22:52:44.067Z,62.50
2019-05-19T22:55:13.939Z,62.70
2019-05-19T22:57:42.714Z,62.80
2019-05-19T23:00:13.228Z,62.80
2019-05-19T23:02:41.671Z,62.80
2019-05-19T23:05:10.730Z,63.00
2019-05-19T23:07:39.234Z,63.20
2019-05-19T23:10:08.462Z,63.50
2019-05-19T23:12:37.156Z,63.60
2019-05-19T23:15:09.099Z,63.60
2019-05-19T23:17:37.548Z,63.60
2019-05-19T23:20:06.430Z,63.90
2019-05-19T23:22:34.886Z,64.10
2019-05-19T23:25:04.417Z,64.30
2019-05-19T23:27:32.948Z,64.40
2019-05-19T23:30:01.386Z,64.50
2019-05-19T23:32:29.837Z,64.50
2019-05-19T23:34:58.534Z,64.60
2019-05-19T23:37:27.323Z,64.60
2019-05-19T23:39:55.788Z,64.60
2019-05-19T23:42:24.264Z,64.80
2019-05-19T23:44:52.757Z,65.00
2019-05-19T23:47:21.507Z,65.00
2019-05-19T23:49:49.944Z,65.00
2019-05-19T23:52:18.400Z,65.00
2019-05-19T23:54:46.842Z,65.30
2019-05-19T23:57:15.293Z,65.30
2019-05-19T23:59:43.736Z,65.60
